Otisville, MI (48463)

3:49 AM EST on February 13, 2016 (GMT -0500)
Columbiaville | | Change Station
CLOSE
Current Station
Personal Weather Station
Location: Columbiaville, MI
Elevation: 820 ft
Nearby Weather Stations

Elev 820 ft 43.13 °N, 83.46 °W | Updated 3 seconds ago

Mostly Cloudy
Mostly Cloudy
-1.1 °F
Feels Like -1 °F
N
0.0
Wind Variable Wind from ESE
Gusts 0.0 mph

Today
High -- | Low -- °F
--% Chance of Precip.
Yesterday
High -- | Low -- °F
Precip. -- in
Pressure 30.28 in
Visibility 7.0 miles
Clouds Overcast 2500 ft
Windchill -1 °F
Dew Point -14 °F
Humidity 54%
Rainfall 0.00 in
Snow Depth Not available.
7:35 AM 6:01 PM
Waxing Crescent, 28% visible
METAR KD95 130833Z AUTO 32003KT 7SM OVC025 M17/M19 A3028 RMK AO2 T11661190
Pressure 30.28 in
Visibility 7.0 miles
Clouds Overcast 2500 ft
Windchill -1 °F
Dew Point -14 °F
Humidity 54%
Rainfall 0.00 in
Snow Depth Not available.
7:35 AM 6:01 PM
Waxing Crescent, 28% visible
METAR KD95 130833Z AUTO 32003KT 7SM OVC025 M17/M19 A3028 RMK AO2 T11661190

10-Day Weather Forecast

Almanac

Astronomy

Feb. 13, 2016 Rise Set
Actual Time
Civil Twilight
Nautical Twilight
Astronomical Twilight
Moon
Length of Visible Light
Length of Day
Tomorrow will be .
, % of the Moon is Illuminated

Today's Extremes

State Highs State Lows

Community

WunderPhotos

Upload Photos

1,892,536 photos uploaded!

WunderBlog® & News

Nearby

Air Quality

  Air Quality AQ Index Pollutant
Not available.

Snow Depth

Station Depth Elevation

Earthquake Activity

City Distance Mag. Time & Date
Minimum magnitude displayed is 2.5.

Coastal Water Temperatures

Place Temperature

Stations

Nearby Weather Stations

Station Location Temp. Windchill Dew Point Humidity Wind Precip. Elev Updated Type
                   

Watches & Warnings

There are currently no watches in effect.